Ross, Minnesota
Current Conditions -  °F | °C
As of 2:14 PM on Friday 31 Oct 2014 (Local Time) from KROX Reporting Station
Clear Clear  
Wind Chill: 31°   Ceiling: Unl
Heat Index: 37°   Visibility: 10mi
Dew Point: 21°   Wind: 8mph
Humidity: 52%   Direction: 180°S
Pressure: 30.51"   Gusts: NA
Location:  48.7499°N, 95.6399°W
Report Text: KROX 311914Z AUTO 18007KT 10SM CLR 03/M06 A3051 RMK AO2
Loading
Personal Weather Stations






























Interactive Weather Map
Tropical Storm Tracking
New forecast layout! Learn more

10-Day Weather Forecast

Advertisements
Track Severe Weather on mobile